Time;durP1;ratioP1;P1;durP2;ratioP2;P2;SDS_P1;SDS_P2;PMS_P1;PMS_P2;Temp;Humidity;BMP_temperature;BMP_pressure;BME280_temperature;BME280_humidity;BME280_pressure;Samples;Min_cycle;Max_cycle;Signal;HPM_P1;HPM_P2
2023/02/20 00:01:03;;;;;;;7.37;5.80;;;;;;;7.57;100.00;97802.50;5054484;28;20194;-79
2023/02/20 00:03:30;;;;;;;6.27;5.70;;;;;;;7.50;100.00;97801.59;5054818;28;20281;-79
2023/02/20 00:05:56;;;;;;;6.27;5.37;;;;;;;7.57;100.00;97801.69;5056552;28;20654;-78
2023/02/20 00:08:22;;;;;;;6.20;5.67;;;;;;;7.64;100.00;97802.53;5056843;28;20236;-78
2023/02/20 00:10:48;;;;;;;6.20;5.60;;;;;;;7.69;100.00;97800.22;5056542;28;20190;-78
2023/02/20 00:13:13;;;;;;;8.63;6.10;;;;;;;7.56;100.00;97803.47;5058378;28;20197;-80
2023/02/20 00:15:38;;;;;;;6.57;5.40;;;;;;;7.51;100.00;97811.84;5057065;28;20248;-78
2023/02/20 00:18:05;;;;;;;8.17;6.00;;;;;;;7.54;100.00;97795.00;5054222;28;20202;-77
2023/02/20 00:20:32;;;;;;;7.13;6.23;;;;;;;7.61;100.00;97800.31;5055673;28;20311;-79
2023/02/20 00:22:57;;;;;;;8.60;7.07;;;;;;;7.67;100.00;97797.78;5065310;28;20280;-78
2023/02/20 00:25:23;;;;;;;7.73;7.13;;;;;;;7.67;100.00;97783.94;5061779;28;20222;-79
2023/02/20 00:27:48;;;;;;;8.00;7.40;;;;;;;7.55;100.00;97785.38;5055408;28;20609;-79
2023/02/20 00:30:18;;;;;;;8.73;8.00;;;;;;;7.57;100.00;97786.84;5055229;28;20212;-79
2023/02/20 00:32:43;;;;;;;10.43;9.33;;;;;;;7.55;100.00;97778.38;5054756;28;20194;-78
2023/02/20 00:35:11;;;;;;;10.80;9.87;;;;;;;7.55;100.00;97783.59;5055101;28;20252;-79
2023/02/20 00:37:39;;;;;;;12.10;11.07;;;;;;;7.50;100.00;97780.72;5054702;28;20194;-79
2023/02/20 00:40:06;;;;;;;11.00;10.20;;;;;;;7.49;100.00;97795.56;5051711;28;20212;-79
2023/02/20 00:42:31;;;;;;;10.83;10.07;;;;;;;7.52;100.00;97789.19;5054758;28;20190;-78
2023/02/20 00:44:56;;;;;;;11.70;10.80;;;;;;;7.42;100.00;97804.28;5054644;28;20205;-78
2023/02/20 00:47:22;;;;;;;11.33;10.57;;;;;;;7.51;100.00;97813.66;5053342;28;20204;-78
2023/02/20 00:49:47;;;;;;;10.50;9.60;;;;;;;7.55;100.00;97819.31;5054672;28;20555;-78
2023/02/20 00:52:12;;;;;;;10.80;9.73;;;;;;;7.51;100.00;97826.69;5054947;28;20194;-78
2023/02/20 00:54:38;;;;;;;10.97;9.90;;;;;;;7.50;100.00;97822.47;5053578;28;20225;-78
2023/02/20 00:57:03;;;;;;;10.67;9.80;;;;;;;7.47;100.00;97823.63;5054445;28;20693;-78
2023/02/20 00:59:29;;;;;;;11.97;10.83;;;;;;;7.58;100.00;97814.53;5054517;28;20228;-79
2023/02/20 01:01:54;;;;;;;10.93;10.03;;;;;;;7.53;100.00;97809.03;5054300;28;20228;-79
2023/02/20 01:04:19;;;;;;;9.33;8.60;;;;;;;7.62;100.00;97814.97;5054177;28;20190;-79
2023/02/20 01:06:45;;;;;;;10.23;8.50;;;;;;;7.50;100.00;97801.59;5054345;28;20217;-79
2023/02/20 01:09:10;;;;;;;10.23;9.20;;;;;;;7.59;100.00;97804.91;5053043;28;20638;-79
2023/02/20 01:11:36;;;;;;;10.97;9.83;;;;;;;7.50;100.00;97801.59;5054011;28;20248;-79
2023/02/20 01:14:01;;;;;;;10.53;9.57;;;;;;;7.51;100.00;97819.69;5052786;28;20186;-79
2023/02/20 01:16:27;;;;;;;9.77;8.87;;;;;;;7.41;100.00;97810.50;5053880;28;20213;-79
2023/02/20 01:18:52;;;;;;;8.83;7.37;;;;;;;7.36;100.00;97818.03;5052848;28;20627;-79
2023/02/20 01:21:18;;;;;;;9.10;6.60;;;;;;;7.40;100.00;97814.91;5052896;28;20193;-79
2023/02/20 01:23:43;;;;;;;8.93;6.77;;;;;;;7.43;100.00;97816.34;5054236;28;20197;-79
2023/02/20 01:26:08;;;;;;;7.87;7.17;;;;;;;7.28;100.00;97805.94;5053549;28;20200;-79
2023/02/20 01:28:34;;;;;;;7.97;7.07;;;;;;;7.14;100.00;97798.91;5053808;28;20189;-78
2023/02/20 01:30:59;;;;;;;8.37;7.70;;;;;;;7.21;100.00;97801.59;5053427;28;20185;-78
2023/02/20 01:33:25;;;;;;;10.17;8.70;;;;;;;7.18;100.00;97794.97;5053716;28;20234;-79
2023/02/20 01:35:50;;;;;;;8.70;7.77;;;;;;;7.09;100.00;97798.63;5052209;28;20736;-78
2023/02/20 01:38:16;;;;;;;10.83;8.13;;;;;;;6.97;100.00;97795.66;5052889;28;20198;-78
2023/02/20 01:40:46;;;;;;;9.93;7.77;;;;;;;6.87;100.00;97782.09;5051539;28;20197;-79
2023/02/20 01:43:12;;;;;;;7.93;7.13;;;;;;;6.95;100.00;97789.84;5053701;28;20182;-79
2023/02/20 01:45:38;;;;;;;6.87;6.27;;;;;;;6.85;100.00;97784.06;5053414;28;20255;-79
2023/02/20 01:48:04;;;;;;;7.37;6.67;;;;;;;6.96;100.00;97783.63;5053160;28;20190;-79
2023/02/20 01:50:36;;;;;;;7.10;6.43;;;;;;;6.85;100.00;97783.25;5053320;28;20201;-79
2023/02/20 01:53:05;;;;;;;9.03;6.37;;;;;;;6.82;100.00;97786.22;5053320;28;20182;-78
2023/02/20 01:55:42;;;;;;;7.13;6.43;;;;;;;6.81;100.00;97782.78;5053233;28;20253;-79
2023/02/20 01:58:19;;;;;;;7.87;6.07;;;;;;;6.77;100.00;97786.75;5053553;28;20186;-78
2023/02/20 02:00:44;;;;;;;6.93;6.23;;;;;;;6.87;100.00;97782.09;5053365;28;20193;-79
2023/02/20 02:03:18;;;;;;;7.00;6.30;;;;;;;6.75;100.00;97783.50;5053224;28;20244;-79
2023/02/20 02:05:47;;;;;;;9.73;6.33;;;;;;;6.84;100.00;97786.84;5051996;28;20205;-79
2023/02/20 02:08:15;;;;;;;6.53;6.03;;;;;;;6.91;100.00;97783.34;5052933;28;20198;-79
2023/02/20 02:10:59;;;;;;;6.03;5.13;;;;;;;6.84;100.00;97779.84;5052816;28;20582;-79
2023/02/20 02:13:24;;;;;;;9.70;5.97;;;;;;;6.90;100.00;97788.75;5053222;28;20553;-79
2023/02/20 02:15:52;;;;;;;7.43;4.70;;;;;;;6.93;100.00;97780.56;5053025;28;20217;-78
2023/02/20 02:18:38;;;;;;;9.00;5.50;;;;;;;6.94;100.00;97774.38;5052796;28;20194;-80
2023/02/20 02:21:09;;;;;;;6.23;5.13;;;;;;;6.93;100.00;97765.75;5053056;28;20185;-80
2023/02/20 02:23:47;;;;;;;5.77;5.30;;;;;;;6.95;100.00;97774.19;5053179;28;20189;-79
2023/02/20 02:26:31;;;;;;;6.17;5.57;;;;;;;7.06;100.00;97759.91;5052323;28;20689;-79
2023/02/20 02:29:15;;;;;;;6.80;6.20;;;;;;;7.02;100.00;97762.03;5052999;28;20212;-79
2023/02/20 02:32:04;;;;;;;5.97;5.43;;;;;;;7.08;100.00;97766.53;5052638;28;20234;-79
2023/02/20 02:34:35;;;;;;;7.97;5.50;;;;;;;7.30;100.00;97764.81;5052380;28;20237;-80
2023/02/20 02:37:18;;;;;;;5.93;5.27;;;;;;;7.28;100.00;97763.41;5052599;28;20190;-79
2023/02/20 02:39:48;;;;;;;6.70;5.53;;;;;;;7.10;100.00;97756.75;5048726;28;20201;-80
2023/02/20 02:42:41;;;;;;;6.17;5.57;;;;;;;7.19;100.00;97761.88;5053265;28;20194;-79
2023/02/20 02:45:19;;;;;;;8.67;6.37;;;;;;;7.19;100.00;97769.72;5056866;28;20170;-79
2023/02/20 02:47:53;;;;;;;8.27;7.57;;;;;;;7.26;100.00;97765.38;5053484;28;20190;-79
2023/02/20 02:50:27;;;;;;;9.93;8.93;;;;;;;7.19;100.00;97761.88;5053106;28;20268;-79
2023/02/20 02:52:54;;;;;;;10.07;9.17;;;;;;;7.21;100.00;97747.66;5052836;28;20214;-79
2023/02/20 02:55:23;;;;;;;10.60;9.70;;;;;;;7.20;100.00;97760.88;5052236;28;20229;-79
2023/02/20 02:57:48;;;;;;;10.33;9.70;;;;;;;7.33;100.00;97756.66;5052561;28;20228;-79
2023/02/20 03:00:40;;;;;;;9.97;8.57;;;;;;;7.22;100.00;97766.72;5051668;28;20206;-79
2023/02/20 03:03:11;;;;;;;7.93;7.33;;;;;;;7.17;100.00;97761.25;5052625;28;20208;-79
2023/02/20 03:05:45;;;;;;;8.87;7.93;;;;;;;7.01;100.00;97755.25;5052744;28;20193;-79
2023/02/20 03:08:21;;;;;;;8.33;7.63;;;;;;;6.96;100.00;97754.16;5052712;28;20181;-79
2023/02/20 03:10:52;;;;;;;7.63;6.97;;;;;;;7.05;100.00;97753.06;5052849;28;20610;-79
2023/02/20 03:13:18;;;;;;;6.07;5.53;;;;;;;7.16;100.00;97757.00;5052443;28;20581;-79
2023/02/20 03:15:51;;;;;;;5.60;5.03;;;;;;;7.00;100.00;97753.63;5052594;28;20216;-79
2023/02/20 03:18:28;;;;;;;5.63;5.03;;;;;;;6.99;100.00;97753.78;5054014;28;20217;-79
2023/02/20 03:20:57;;;;;;;7.90;5.50;;;;;;;6.90;100.00;97752.28;5056015;28;20544;-79
2023/02/20 03:23:30;;;;;;;5.77;4.73;;;;;;;6.91;100.00;97754.66;5056507;28;20196;-79
2023/02/20 03:26:01;;;;;;;5.50;4.93;;;;;;;6.90;100.00;97760.09;5065958;28;20204;-79
2023/02/20 03:28:33;;;;;;;5.73;5.00;;;;;;;7.01;100.00;97757.03;5056199;28;20186;-79
2023/02/20 03:31:05;;;;;;;7.70;4.97;;;;;;;6.97;100.00;97751.34;5056267;28;20248;-79
2023/02/20 03:45:03;;;;;;;10.50;6.03;;;;;;;6.83;100.00;97753.97;5056040;28;20710;-79
2023/02/20 03:47:30;;;;;;;8.87;6.37;;;;;;;6.81;100.00;97769.75;5055449;28;20650;-80
2023/02/20 03:49:56;;;;;;;6.57;5.97;;;;;;;6.96;100.00;97764.59;5056119;28;20212;-80
2023/02/20 03:52:22;;;;;;;6.20;5.60;;;;;;;6.95;100.00;97768.97;5055170;28;20643;-79
2023/02/20 03:54:48;;;;;;;8.80;6.17;;;;;;;6.96;100.00;97769.78;5055709;28;20220;-79
2023/02/20 03:57:19;;;;;;;11.30;6.90;;;;;;;6.93;100.00;97768.34;5055385;28;20583;-79
2023/02/20 03:59:54;;;;;;;7.27;5.83;;;;;;;6.88;100.00;97764.66;5055867;28;20196;-79
2023/02/20 04:02:26;;;;;;;6.73;6.13;;;;;;;6.98;100.00;97752.16;5055061;28;20182;-80
2023/02/20 04:04:57;;;;;;;6.10;5.47;;;;;;;6.77;100.00;97758.09;5055692;28;20178;-79
2023/02/20 04:07:26;;;;;;;8.33;6.30;;;;;;;6.74;100.00;97760.25;5055180;28;20257;-79
2023/02/20 04:09:56;;;;;;;7.97;6.17;;;;;;;6.77;100.00;97757.28;5054555;28;20289;-80
2023/02/20 04:12:32;;;;;;;6.30;5.70;;;;;;;6.55;100.00;97746.75;5054221;28;20202;-79
2023/02/20 04:14:59;;;;;;;5.50;4.97;;;;;;;6.52;100.00;97738.50;5052792;28;20313;-79
2023/02/20 04:17:29;;;;;;;8.47;5.43;;;;;;;6.39;100.00;97733.88;5054343;28;20506;-79
2023/02/20 04:19:54;;;;;;;13.83;5.83;;;;;;;6.31;100.00;97730.53;5033581;28;20229;-79
2023/02/20 04:22:25;;;;;;;7.17;6.43;;;;;;;6.38;100.00;97728.84;5055115;28;20182;-79
2023/02/20 04:25:05;;;;;;;6.07;5.60;;;;;;;6.22;100.00;97737.59;5054292;28;20666;-79
2023/02/20 04:27:31;;;;;;;9.07;5.87;;;;;;;6.20;100.00;97734.34;5054964;28;20178;-79
2023/02/20 04:29:56;;;;;;;9.13;6.53;;;;;;;6.25;100.00;97735.44;5054396;28;20194;-79
2023/02/20 04:32:22;;;;;;;6.47;5.50;;;;;;;6.18;100.00;97731.13;5054963;28;20228;-79
2023/02/20 04:34:47;;;;;;;9.37;6.37;;;;;;;6.15;100.00;97731.47;5054690;28;20550;-80
2023/02/20 04:37:14;;;;;;;8.73;6.30;;;;;;;6.03;100.00;97725.88;5054705;28;20538;-79
2023/02/20 04:39:40;;;;;;;7.37;6.67;;;;;;;6.18;100.00;97728.53;5052718;28;20202;-80
2023/02/20 04:42:06;;;;;;;10.07;6.93;;;;;;;6.06;100.00;97722.13;5054709;28;20222;-79
2023/02/20 04:44:33;;;;;;;9.23;7.30;;;;;;;6.04;100.00;97726.69;5054723;28;20202;-79
2023/02/20 04:47:15;;;;;;;11.10;7.17;;;;;;;5.98;100.00;97724.78;5054657;28;20201;-78
2023/02/20 04:49:40;;;;;;;8.03;7.13;;;;;;;5.91;100.00;97722.06;5053251;28;20201;-79
2023/02/20 04:52:05;;;;;;;7.40;6.70;;;;;;;5.91;100.00;97721.28;5054349;28;20190;-79
2023/02/20 04:54:31;;;;;;;8.67;7.30;;;;;;;5.88;100.00;97724.22;5054204;28;20693;-79
2023/02/20 04:56:56;;;;;;;8.43;7.20;;;;;;;5.84;100.00;97721.94;5054219;28;20225;-77
2023/02/20 04:59:22;;;;;;;8.73;7.23;;;;;;;5.81;100.00;97735.28;5054382;28;20277;-79
2023/02/20 05:01:50;;;;;;;9.93;7.57;;;;;;;5.75;100.00;97738.56;5054240;28;20212;-79
2023/02/20 05:04:16;;;;;;;6.90;6.20;;;;;;;5.78;100.00;97740.84;5054248;28;20217;-79
2023/02/20 05:06:45;;;;;;;11.47;7.03;;;;;;;5.84;100.00;97736.72;5054590;28;20281;-79
2023/02/20 05:09:10;;;;;;;9.23;6.30;;;;;;;5.81;100.00;97742.25;5056187;28;20328;-79
2023/02/20 05:11:38;;;;;;;8.17;6.43;;;;;;;5.77;100.00;97739.22;5053303;28;20281;-79
2023/02/20 05:14:04;;;;;;;10.43;5.97;;;;;;;5.66;100.00;97731.00;5052571;28;20565;-78
2023/02/20 05:16:30;;;;;;;9.23;6.23;;;;;;;5.62;100.00;97730.53;5052550;28;20348;-78
2023/02/20 05:18:55;;;;;;;11.47;6.93;;;;;;;5.61;100.00;97734.09;5052668;28;20288;-78
2023/02/20 05:24:05;;;;;;;7.07;6.37;;;;;;;5.59;100.00;97738.66;5053978;28;20201;-78
2023/02/20 05:26:31;;;;;;;12.70;6.90;;;;;;;5.61;100.00;97735.91;5053280;28;20225;-80
2023/02/20 05:28:56;;;;;;;8.67;6.50;;;;;;;5.67;100.00;97730.81;5054320;28;20224;-79
2023/02/20 05:31:21;;;;;;;10.17;7.20;;;;;;;5.64;100.00;97727.75;5053449;28;20654;-76
2023/02/20 05:33:47;;;;;;;10.47;6.33;;;;;;;5.58;100.00;97729.22;5052157;28;20221;-77
2023/02/20 05:36:12;;;;;;;11.50;7.00;;;;;;;5.56;100.00;97739.03;5052257;28;20281;-78
2023/02/20 05:38:40;;;;;;;9.20;6.63;;;;;;;5.61;100.00;97723.72;5051694;28;20194;-77
2023/02/20 05:41:05;;;;;;;6.90;6.17;;;;;;;5.42;100.00;97726.72;5053029;28;20243;-77
2023/02/20 05:43:30;;;;;;;8.43;6.87;;;;;;;5.53;100.00;97730.72;5053176;28;20276;-77
2023/02/20 05:45:56;;;;;;;9.80;6.73;;;;;;;5.50;100.00;97731.91;5053304;28;20205;-77
2023/02/20 05:48:21;;;;;;;12.13;6.97;;;;;;;5.49;100.00;97737.25;5052258;28;20263;-77
2023/02/20 05:50:49;;;;;;;7.93;7.23;;;;;;;5.53;100.00;97731.53;5053595;28;20586;-77
2023/02/20 05:53:15;;;;;;;9.07;6.57;;;;;;;5.44;100.00;97732.59;5051957;28;20196;-77
2023/02/20 05:55:40;;;;;;;8.27;7.47;;;;;;;5.37;100.00;97736.84;5051791;28;20202;-76
2023/02/20 05:58:06;;;;;;;9.67;7.13;;;;;;;5.34;100.00;97742.38;5053299;28;20200;-78
2023/02/20 06:00:32;;;;;;;10.43;7.30;;;;;;;5.36;100.00;97737.81;5051706;28;20194;-78
2023/02/20 06:02:58;;;;;;;8.40;7.60;;;;;;;5.33;100.00;97736.38;5053101;28;20198;-78
2023/02/20 06:05:25;;;;;;;10.67;8.37;;;;;;;5.30;100.00;97739.28;5052919;28;20592;-76
2023/02/20 06:07:50;;;;;;;12.50;8.17;;;;;;;5.32;100.00;97742.53;5068775;28;20190;-77
2023/02/20 06:10:18;;;;;;;11.50;7.67;;;;;;;5.29;100.00;97747.28;5060857;28;20650;-77
2023/02/20 06:12:43;;;;;;;12.60;8.40;;;;;;;5.21;100.00;97739.50;5052573;28;20655;-76
2023/02/20 06:15:09;;;;;;;14.00;12.50;;;;;;;5.25;100.00;97736.41;5051852;28;20220;-76
2023/02/20 06:17:35;;;;;;;12.03;8.13;;;;;;;5.34;100.00;97737.19;5052483;28;20190;-77
2023/02/20 06:20:00;;;;;;;10.50;8.20;;;;;;;5.22;100.00;97734.16;5050261;28;20546;-77
2023/02/20 06:22:29;;;;;;;11.77;8.27;;;;;;;5.22;100.00;97739.34;5052599;28;20194;-80
2023/02/20 06:24:54;;;;;;;9.53;8.67;;;;;;;5.20;100.00;97738.69;5050485;28;20206;-77
2023/02/20 06:27:19;;;;;;;11.93;7.97;;;;;;;5.16;100.00;97742.63;5051021;28;20198;-77
2023/02/20 06:29:48;;;;;;;8.50;7.33;;;;;;;5.20;100.00;97741.28;5052941;28;20205;-76
2023/02/20 06:32:14;;;;;;;9.07;8.10;;;;;;;5.31;100.00;97746.13;5052348;28;20194;-76
2023/02/20 06:34:40;;;;;;;12.77;8.90;;;;;;;5.41;100.00;97743.31;5052311;28;20268;-77
2023/02/20 06:37:05;;;;;;;8.40;7.60;;;;;;;5.47;100.00;97747.00;5049521;28;20580;-77
2023/02/20 06:39:32;;;;;;;7.57;6.87;;;;;;;5.42;100.00;97753.53;5051323;28;20205;-81
2023/02/20 06:41:57;;;;;;;11.00;7.23;;;;;;;5.35;100.00;97751.81;5052786;28;20241;-75
2023/02/20 06:44:22;;;;;;;11.13;7.93;;;;;;;5.34;100.00;97751.00;5052350;28;20657;-74
2023/02/20 06:46:48;;;;;;;9.53;8.50;;;;;;;5.41;100.00;97754.50;5052894;28;20208;-74
2023/02/20 06:49:14;;;;;;;10.37;9.27;;;;;;;5.65;100.00;97756.19;5052833;28;20208;-74
2023/02/20 06:51:39;;;;;;;10.37;9.30;;;;;;;5.81;100.00;97761.28;5052554;28;20276;-74
2023/02/20 06:54:05;;;;;;;14.93;13.90;;;;;;;5.80;100.00;97757.06;5054757;28;20200;-76
2023/02/20 06:56:33;;;;;;;11.77;7.73;;;;;;;5.90;100.00;97761.28;5056718;28;20201;-73
2023/02/20 06:59:00;;;;;;;11.77;6.83;;;;;;;5.96;100.00;97753.59;5056959;28;20194;-74
2023/02/20 07:01:27;;;;;;;8.00;6.73;;;;;;;6.10;100.00;97765.03;5055447;28;20193;-72
2023/02/20 07:03:57;;;;;;;9.87;8.77;;;;;;;6.14;100.00;97763.69;5056357;28;20233;-75
2023/02/20 07:06:23;;;;;;;8.97;8.07;;;;;;;6.23;100.00;97776.47;5056324;28;20239;-73
2023/02/20 07:08:49;;;;;;;9.10;7.33;;;;;;;6.52;100.00;97777.56;5056611;28;20197;-72
2023/02/20 07:11:17;;;;;;;10.67;7.23;;;;;;;6.49;100.00;97767.47;5054739;28;20194;-73
2023/02/20 07:13:42;;;;;;;8.27;7.27;;;;;;;6.73;100.00;97772.47;5052506;28;20217;-73
2023/02/20 07:16:08;;;;;;;10.47;8.60;;;;;;;6.79;100.00;97768.34;5055121;28;20305;-73
2023/02/20 07:18:33;;;;;;;9.07;6.57;;;;;;;6.91;100.00;97772.91;5055608;28;20198;-73
2023/02/20 07:20:58;;;;;;;9.27;8.37;;;;;;;6.82;100.00;97779.22;5055526;28;20768;-73
2023/02/20 07:23:24;;;;;;;7.27;6.10;;;;;;;6.92;100.00;97774.53;5054187;28;20190;-74
2023/02/20 07:25:50;;;;;;;7.03;5.60;;;;;;;6.96;100.00;97777.63;5055476;28;20189;-73
2023/02/20 07:28:17;;;;;;;7.23;5.50;;;;;;;7.14;100.00;97778.03;5055705;28;20198;-72
2023/02/20 07:30:44;;;;;;;6.03;5.43;;;;;;;7.29;100.00;97789.28;5055618;28;20625;-71
2023/02/20 07:33:09;;;;;;;8.17;7.40;;;;;;;7.12;100.00;97784.44;5056314;28;20567;-73
2023/02/20 07:35:35;;;;;;;7.47;6.80;;;;;;;7.23;100.00;97779.59;5060530;28;20202;-74
2023/02/20 07:38:00;;;;;;;7.27;6.57;;;;;;;7.19;100.00;97787.97;5055395;28;20182;-74
2023/02/20 07:40:26;;;;;;;7.13;6.50;;;;;;;7.37;100.00;97775.34;5055222;28;20209;-73
2023/02/20 07:42:51;;;;;;;7.73;6.37;;;;;;;7.63;100.00;97786.09;5054951;28;20212;-73
2023/02/20 07:45:17;;;;;;;5.97;5.40;;;;;;;7.53;100.00;97782.97;5055246;28;20217;-73
2023/02/20 07:47:42;;;;;;;5.97;5.20;;;;;;;7.74;99.74;97784.81;5054635;28;20220;-75
2023/02/20 07:50:08;;;;;;;8.63;5.77;;;;;;;7.97;97.98;97784.66;5054755;28;20198;-73
2023/02/20 07:52:33;;;;;;;6.97;5.33;;;;;;;8.05;97.34;97763.66;5054726;28;20214;-73
2023/02/20 07:54:59;;;;;;;6.60;5.70;;;;;;;8.18;96.23;97772.44;5054807;28;20214;-74
2023/02/20 07:57:24;;;;;;;8.40;4.60;;;;;;;8.13;96.15;97769.56;5052816;28;20502;-73
2023/02/20 07:59:50;;;;;;;7.80;5.77;;;;;;;8.29;94.27;97777.16;5052614;28;20221;-73
2023/02/20 08:02:15;;;;;;;6.60;5.93;;;;;;;8.26;94.79;97768.88;5050753;28;20651;-73
2023/02/20 08:04:40;;;;;;;7.47;6.47;;;;;;;8.22;94.75;97759.78;5053997;28;20198;-73
2023/02/20 08:07:06;;;;;;;8.27;6.57;;;;;;;8.36;93.29;97761.53;5050777;28;20589;-73
2023/02/20 08:09:31;;;;;;;7.93;7.17;;;;;;;8.36;92.84;97764.16;5033620;28;21076;-73
2023/02/20 08:11:57;;;;;;;8.23;7.30;;;;;;;8.16;93.63;97760.53;5033603;28;20535;-73
2023/02/20 08:14:22;;;;;;;79.13;73.53;;;;;;;8.36;93.12;97763.38;5035074;28;20225;-72
2023/02/20 08:16:47;;;;;;;9.67;7.53;;;;;;;8.33;92.97;97748.88;5036824;28;20210;-73
2023/02/20 08:19:13;;;;;;;9.37;8.40;;;;;;;8.47;92.00;97750.59;5063277;28;20190;-73
2023/02/20 08:21:38;;;;;;;8.60;7.33;;;;;;;8.41;91.71;97750.56;5055012;28;20519;-74
2023/02/20 08:24:05;;;;;;;8.10;7.27;;;;;;;8.49;90.99;97751.22;5055041;28;20273;-75
2023/02/20 08:26:30;;;;;;;7.77;7.07;;;;;;;8.66;89.93;97756.97;5040987;28;20203;-75
2023/02/20 08:28:56;;;;;;;8.73;6.63;;;;;;;8.56;90.11;97748.66;5054033;28;20285;-74
2023/02/20 08:31:21;;;;;;;8.80;8.10;;;;;;;8.62;90.10;97747.91;5054000;28;20194;-75
2023/02/20 08:33:46;;;;;;;10.23;9.27;;;;;;;8.55;89.96;97742.63;5054735;28;20236;-74
2023/02/20 08:36:17;;;;;;;11.67;10.77;;;;;;;8.79;88.49;97727.50;5054311;28;20684;-75
2023/02/20 08:38:43;;;;;;;9.77;8.77;;;;;;;8.69;87.75;97733.88;5054534;28;20226;-74
2023/02/20 08:41:10;;;;;;;9.30;8.30;;;;;;;8.80;87.20;97743.00;5053467;28;20192;-74
2023/02/20 08:43:38;;;;;;;9.50;8.80;;;;;;;8.60;87.65;97736.81;5054595;28;20198;-74
2023/02/20 08:46:05;;;;;;;10.90;9.87;;;;;;;8.72;87.56;97743.13;5054617;28;20186;-74
2023/02/20 08:48:30;;;;;;;7.40;6.90;;;;;;;8.81;87.34;97736.75;5052843;28;20182;-73
2023/02/20 08:50:56;;;;;;;8.03;6.97;;;;;;;8.89;87.08;97735.81;5052992;28;20646;-74
2023/02/20 08:53:22;;;;;;;8.57;7.20;;;;;;;8.97;86.13;97733.84;5054007;28;20237;-75
2023/02/20 08:55:48;;;;;;;6.77;6.20;;;;;;;9.07;86.44;97739.53;5051868;28;20210;-74
2023/02/20 08:58:19;;;;;;;11.23;10.13;;;;;;;9.16;85.08;97743.59;5053501;28;20193;-73
2023/02/20 09:00:44;;;;;;;8.33;7.67;;;;;;;9.24;84.53;97736.59;5053486;28;20187;-74
2023/02/20 09:03:10;;;;;;;7.50;6.80;;;;;;;9.21;84.92;97734.34;5052621;28;20198;-74
2023/02/20 09:05:35;;;;;;;6.63;6.00;;;;;;;9.40;83.94;97734.47;5054132;28;20217;-74
2023/02/20 09:08:02;;;;;;;5.80;5.27;;;;;;;9.51;82.97;97728.66;5051917;28;20190;-74
2023/02/20 09:10:27;;;;;;;7.20;5.90;;;;;;;9.56;82.33;97728.88;5052609;28;20225;-74
2023/02/20 09:12:53;;;;;;;7.20;6.67;;;;;;;9.64;81.71;97717.41;5054301;28;20663;-74
2023/02/20 09:15:18;;;;;;;7.73;7.23;;;;;;;9.74;81.31;97710.00;5051323;28;20596;-74
2023/02/20 09:17:47;;;;;;;12.10;10.97;;;;;;;9.60;81.70;97716.19;5053909;28;20699;-73
2023/02/20 09:20:14;;;;;;;21.00;19.47;;;;;;;9.68;80.43;97710.78;5053258;28;20209;-77
2023/02/20 09:22:40;;;;;;;30.67;28.83;;;;;;;9.73;79.11;97711.00;5055614;28;20189;-77
2023/02/20 09:25:06;;;;;;;14.93;13.73;;;;;;;9.76;77.91;97707.97;5054508;28;20236;-74
2023/02/20 09:27:33;;;;;;;15.63;14.70;;;;;;;9.91;77.44;97710.44;5054447;28;20198;-74
2023/02/20 09:29:59;;;;;;;11.37;10.57;;;;;;;9.99;76.31;97710.22;5052508;28;20212;-75
2023/02/20 09:32:24;;;;;;;19.23;17.87;;;;;;;9.98;76.85;97704.19;5060387;28;20193;-72
2023/02/20 09:34:49;;;;;;;27.90;26.10;;;;;;;10.02;76.71;97708.03;5052898;28;20233;-72
2023/02/20 09:37:14;;;;;;;20.67;19.47;;;;;;;10.12;75.35;97699.78;5053188;28;20193;-73
2023/02/20 09:39:40;;;;;;;19.77;18.60;;;;;;;10.06;75.95;97699.78;5052610;28;20224;-72
2023/02/20 09:42:37;;;;;;;16.37;15.30;;;;;;;10.22;73.52;97691.53;5051994;28;20308;-73
2023/02/20 09:45:15;;;;;;;22.47;21.00;;;;;;;10.65;73.71;97695.31;5052772;28;20658;-73
2023/02/20 09:47:59;;;;;;;9.63;8.73;;;;;;;10.79;71.93;97694.31;5050588;28;20177;-72
2023/02/20 09:50:46;;;;;;;9.50;8.70;;;;;;;10.50;71.56;97699.19;5045817;28;20185;-73
2023/02/20 09:53:36;;;;;;;11.63;10.70;;;;;;;10.66;69.66;97693.50;5046734;28;20228;-74
2023/02/20 09:56:05;;;;;;;7.63;7.03;;;;;;;10.76;69.69;97699.13;5052180;28;20256;-75
2023/02/20 09:58:54;;;;;;;9.00;8.30;;;;;;;10.78;69.58;97697.13;5053656;28;20544;-74
2023/02/20 10:01:21;;;;;;;10.07;9.10;;;;;;;10.76;69.93;97686.84;5052245;28;20185;-74
2023/02/20 10:03:58;;;;;;;10.90;10.17;;;;;;;10.80;69.46;97690.69;5052509;28;20493;-76
2023/02/20 10:06:34;;;;;;;13.73;12.70;;;;;;;10.79;69.80;97694.31;5052649;28;20281;-74
2023/02/20 10:09:01;;;;;;;7.50;6.90;;;;;;;10.68;70.76;97683.63;5052013;28;20553;-74
2023/02/20 10:11:57;;;;;;;11.20;10.27;;;;;;;10.54;70.00;97680.22;5051309;28;20236;-74
2023/02/20 10:14:51;;;;;;;7.70;7.10;;;;;;;10.73;70.32;97668.09;5052574;28;20186;-74
2023/02/20 10:17:28;;;;;;;8.50;7.60;;;;;;;10.61;70.12;97670.53;5052110;28;20190;-75
2023/02/20 10:20:29;;;;;;;10.10;9.30;;;;;;;10.63;70.16;97680.84;5052226;28;20201;-73
2023/02/20 10:23:09;;;;;;;21.23;19.53;;;;;;;10.62;70.29;97672.16;5052402;28;20240;-74
2023/02/20 10:25:39;;;;;;;17.13;15.87;;;;;;;10.71;70.04;97677.97;5052091;28;20603;-73
2023/02/20 10:28:15;;;;;;;14.47;13.33;;;;;;;10.80;69.30;97667.09;5051731;28;20186;-73
2023/02/20 10:31:17;;;;;;;10.73;10.03;;;;;;;10.72;69.69;97674.34;5052357;28;20272;-74
2023/02/20 10:33:48;;;;;;;12.93;12.13;;;;;;;10.67;69.86;97672.34;5052379;28;20251;-76
2023/02/20 10:36:27;;;;;;;12.43;11.60;;;;;;;10.79;69.50;97664.66;5052566;28;20210;-73
2023/02/20 10:39:16;;;;;;;11.93;11.13;;;;;;;10.64;69.32;97675.41;5052673;28;20645;-74
2023/02/20 10:41:42;;;;;;;8.13;7.47;;;;;;;10.86;68.53;97660.22;5048342;28;20277;-74
2023/02/20 10:44:16;;;;;;;6.50;5.90;;;;;;;10.80;68.94;97667.09;5052353;28;20220;-74
2023/02/20 10:46:42;;;;;;;6.07;5.47;;;;;;;10.96;67.20;97662.38;5050208;28;20296;-74
2023/02/20 10:49:15;;;;;;;8.83;8.07;;;;;;;11.04;67.32;97652.44;5051861;28;20278;-75
2023/02/20 10:51:45;;;;;;;4.90;4.30;;;;;;;11.01;67.33;97652.88;5051994;28;20186;-74
2023/02/20 10:54:23;;;;;;;7.60;5.37;;;;;;;11.01;67.24;97655.50;5051931;28;20212;-74
2023/02/20 10:57:32;;;;;;;5.43;4.37;;;;;;;11.39;67.06;97645.03;5051488;28;20209;-74
2023/02/20 11:00:11;;;;;;;4.50;4.10;;;;;;;11.43;67.08;97643.59;4993408;28;20203;-75
2023/02/20 11:02:44;;;;;;;7.23;6.63;;;;;;;11.48;66.90;97656.09;4995081;28;20199;-75
2023/02/20 11:05:14;;;;;;;4.57;3.93;;;;;;;11.42;66.92;97646.44;5037035;28;20324;-74
2023/02/20 11:07:39;;;;;;;6.10;4.13;;;;;;;11.46;67.24;97645.00;5051768;28;20350;-74
2023/02/20 11:10:05;;;;;;;6.63;4.33;;;;;;;11.46;66.57;97640.56;5051106;28;20197;-72
2023/02/20 11:12:35;;;;;;;5.43;3.87;;;;;;;11.24;67.73;97634.81;5051772;28;20537;-73
2023/02/20 11:15:06;;;;;;;6.70;5.17;;;;;;;11.35;66.89;97628.09;5051521;28;20233;-74
2023/02/20 11:17:33;;;;;;;4.47;4.07;;;;;;;11.44;66.72;97633.91;5051240;28;20178;-73
2023/02/20 11:20:01;;;;;;;4.90;4.33;;;;;;;11.47;67.03;97628.25;5051646;28;20277;-73
2023/02/20 11:22:46;;;;;;;5.57;3.70;;;;;;;11.50;67.38;97628.63;5051709;28;20194;-74
2023/02/20 11:25:29;;;;;;;4.57;4.03;;;;;;;11.53;67.33;97625.59;5051185;28;20228;-74
2023/02/20 11:28:09;;;;;;;7.80;4.20;;;;;;;11.70;66.41;97622.44;5038230;28;20194;-74
2023/02/20 11:30:38;;;;;;;6.27;4.80;;;;;;;11.78;66.30;97617.75;5051314;28;20650;-74
2023/02/20 11:33:23;;;;;;;5.43;4.93;;;;;;;11.82;65.48;97613.66;5051255;28;20189;-73
2023/02/20 11:35:57;;;;;;;6.27;5.77;;;;;;;11.96;65.45;97615.19;5051719;28;20218;-73
2023/02/20 11:38:22;;;;;;;7.93;6.77;;;;;;;12.06;65.05;97618.13;5051624;28;20198;-73
2023/02/20 11:40:55;;;;;;;11.33;10.60;;;;;;;11.91;65.04;97614.22;5055757;28;20190;-74
2023/02/20 11:43:26;;;;;;;10.10;9.40;;;;;;;11.87;65.12;97605.19;5054389;28;20655;-73
2023/02/20 11:46:08;;;;;;;12.60;11.80;;;;;;;11.93;64.82;97604.28;5055150;28;20643;-77
2023/02/20 11:48:33;;;;;;;13.97;13.03;;;;;;;11.98;64.70;97592.13;5055334;28;20231;-74
2023/02/20 11:50:58;;;;;;;18.33;16.90;;;;;;;12.01;64.13;97588.28;5055576;28;20777;-74
2023/02/20 11:53:31;;;;;;;11.80;10.90;;;;;;;11.99;63.54;97590.31;5055018;28;20217;-72
2023/02/20 11:56:09;;;;;;;8.70;8.20;;;;;;;11.91;63.31;97590.59;5054188;28;20681;-73